Time;durP1;ratioP1;P1;durP2;ratioP2;P2;SDS_P1;SDS_P2;PMS_P1;PMS_P2;Temp;Humidity;BMP_temperature;BMP_pressure;BME280_temperature;BME280_humidity;BME280_pressure;Samples;Min_cycle;Max_cycle;Signal;HPM_P1;HPM_P2
2022/09/04 00:03:03;;;;;;;13.40;12.07;;;25.20;57.90;;;;;;4799427;55;21071;-28
2022/09/04 00:09:41;;;;;;;12.33;11.23;;;25.20;57.90;;;;;;4787264;55;21564;-31
2022/09/04 00:14:56;;;;;;;13.07;11.10;;;25.20;58.00;;;;;;4736522;55;22166;-25
2022/09/04 00:20:02;;;;;;;14.15;11.50;;;25.10;57.80;;;;;;4749484;55;21019;-31
2022/09/04 00:25:13;;;;;;;11.70;10.52;;;25.10;57.90;;;;;;4763854;55;21003;-30
2022/09/04 00:30:19;;;;;;;12.32;11.12;;;25.10;57.90;;;;;;4736525;55;21040;-34
2022/09/04 00:35:37;;;;;;;11.77;10.68;;;25.20;58.00;;;;;;4785588;55;20960;-26
2022/09/04 00:40:45;;;;;;;11.50;10.40;;;25.10;57.80;;;;;;4780121;55;21043;-27
2022/09/04 00:47:39;;;;;;;11.50;10.30;;;25.10;57.90;;;;;;4736409;55;20991;-28
2022/09/04 00:53:25;;;;;;;11.77;10.57;;;25.10;58.00;;;;;;4743403;55;22611;-24
2022/09/04 01:00:08;;;;;;;11.35;10.25;;;25.10;57.90;;;;;;4747153;55;21039;-28
2022/09/04 01:05:46;;;;;;;11.98;10.63;;;25.10;57.90;;;;;;4740577;55;20999;-28
2022/09/04 01:14:13;;;;;;;11.45;10.45;;;25.20;58.00;;;;;;4796015;55;21601;-36
2022/09/04 01:22:40;;;;;;;11.60;10.50;;;25.10;57.90;;;;;;4753212;55;21430;-32
2022/09/04 01:30:18;;;;;;;11.55;10.45;;;25.10;58.00;;;;;;4746011;55;22151;-26
2022/09/04 01:35:44;;;;;;;11.38;10.27;;;25.20;58.10;;;;;;4755183;55;21609;-32
2022/09/04 01:40:56;;;;;;;11.63;9.82;;;25.10;58.00;;;;;;4735730;59;21497;-32
2022/09/04 01:49:01;;;;;;;10.50;9.50;;;25.20;58.10;;;;;;4749724;55;20986;-29
2022/09/04 01:54:36;;;;;;;11.05;9.95;;;25.10;58.00;;;;;;4784946;55;21031;-24
2022/09/04 02:05:07;;;;;;;11.32;9.63;;;25.10;58.00;;;;;;4754988;55;21522;-27
2022/09/04 02:10:44;;;;;;;10.55;9.55;;;25.10;58.00;;;;;;4736175;59;21015;-27
2022/09/04 02:18:36;;;;;;;10.30;9.38;;;25.10;58.00;;;;;;4763059;55;21314;-33
2022/09/04 02:23:51;;;;;;;10.68;9.32;;;25.10;58.10;;;;;;4758683;55;21170;-25
2022/09/04 02:29:29;;;;;;;10.50;9.30;;;25.10;58.00;;;;;;4742061;55;21521;-27
2022/09/04 02:34:53;;;;;;;10.20;9.20;;;25.10;58.00;;;;;;4781324;55;21118;-26
2022/09/04 02:40:11;;;;;;;9.50;8.65;;;25.10;58.00;;;;;;4747369;55;21009;-35
2022/09/04 02:50:21;;;;;;;9.55;8.65;;;25.10;58.10;;;;;;4765951;55;21035;-29
2022/09/04 03:00:46;;;;;;;10.18;9.18;;;25.10;58.00;;;;;;4746047;55;21067;-37
2022/09/04 03:06:07;;;;;;;9.77;8.88;;;25.10;58.10;;;;;;4740329;55;20991;-26
2022/09/04 03:11:22;;;;;;;10.43;9.35;;;25.10;58.00;;;;;;4737238;55;21040;-25
2022/09/04 03:18:05;;;;;;;10.18;9.05;;;25.10;58.00;;;;;;4762563;55;21063;-27
2022/09/04 03:23:19;;;;;;;9.98;9.05;;;25.10;58.10;;;;;;4735748;55;21007;-27
2022/09/04 03:29:55;;;;;;;9.70;8.70;;;25.10;58.10;;;;;;4795390;55;20979;-25
2022/09/04 03:35:49;;;;;;;9.75;8.75;;;25.10;58.10;;;;;;4760877;55;21496;-29
2022/09/04 03:41:15;;;;;;;9.75;8.70;;;25.10;58.10;;;;;;4742921;55;21028;-25
2022/09/04 03:46:36;;;;;;;9.02;8.15;;;25.10;58.10;;;;;;4737014;55;21090;-25
2022/09/04 03:52:01;;;;;;;8.73;7.93;;;25.10;58.20;;;;;;4755880;55;21019;-28
2022/09/04 03:57:39;;;;;;;10.45;9.23;;;25.10;58.10;;;;;;4760347;55;20964;-38
2022/09/04 04:03:04;;;;;;;9.68;8.65;;;25.10;58.10;;;;;;4738009;55;21502;-30
2022/09/04 04:11:02;;;;;;;10.07;8.93;;;25.10;58.10;;;;;;4747438;55;21047;-26
2022/09/04 04:19:19;;;;;;;9.02;8.13;;;25.10;58.20;;;;;;4743898;55;21506;-31
2022/09/04 04:25:05;;;;;;;9.05;8.20;;;25.10;58.30;;;;;;4753101;55;21043;-24
2022/09/04 04:30:08;;;;;;;9.70;8.13;;;25.10;58.10;;;;;;4745326;55;21047;-28
2022/09/04 04:42:03;;;;;;;8.93;8.07;;;25.00;58.10;;;;;;4778955;55;21031;-24
2022/09/04 04:49:51;;;;;;;9.43;8.48;;;25.00;58.10;;;;;;4757857;55;21031;-33
2022/09/04 04:55:12;;;;;;;8.48;7.68;;;25.00;58.10;;;;;;4785005;55;21088;-26
2022/09/04 05:00:23;;;;;;;8.75;7.95;;;25.10;58.70;;;;;;4789263;55;21094;-37
2022/09/04 05:06:00;;;;;;;9.25;8.35;;;25.10;58.20;;;;;;4822739;55;21091;-38
2022/09/04 05:13:11;;;;;;;8.70;7.90;;;25.00;58.10;;;;;;4736540;59;20976;-37
2022/09/04 05:18:21;;;;;;;9.43;8.00;;;25.00;58.10;;;;;;4759205;55;21007;-37
2022/09/04 05:24:03;;;;;;;8.63;7.72;;;25.00;58.10;;;;;;4746110;55;20976;-33
2022/09/04 05:29:36;;;;;;;9.38;8.35;;;25.00;58.20;;;;;;4741522;55;20979;-26
2022/09/04 05:35:12;;;;;;;9.32;8.43;;;25.00;58.20;;;;;;4755830;55;21012;-33
2022/09/04 05:41:05;;;;;;;9.18;8.25;;;25.00;58.10;;;;;;4741179;55;21015;-30
2022/09/04 05:47:19;;;;;;;9.32;8.43;;;25.10;58.20;;;;;;4764375;55;21039;-27
2022/09/04 05:53:39;;;;;;;9.23;8.32;;;25.00;58.10;;;;;;4761734;55;20955;-38
2022/09/04 05:59:06;;;;;;;10.27;8.82;;;25.00;58.20;;;;;;4737768;55;21485;-32
2022/09/04 06:05:17;;;;;;;9.48;8.52;;;25.00;58.20;;;;;;4737553;55;21008;-30
2022/09/04 06:12:23;;;;;;;10.75;8.95;;;25.10;58.20;;;;;;4736576;59;21958;-25
2022/09/04 06:17:36;;;;;;;;;;;25.10;58.80;;;;;;4761689;55;21047;-25
2022/09/04 06:24:21;;;;;;;10.35;9.07;;;25.00;58.10;;;;;;4738827;55;20068;-27
2022/09/04 06:33:11;;;;;;;10.53;8.37;;;25.00;58.20;;;;;;4766592;55;21110;-33
2022/09/04 06:40:04;;;;;;;9.55;8.65;;;25.00;58.20;;;;;;4762370;55;21684;-33
2022/09/04 06:45:41;;;;;;;9.60;8.60;;;25.00;58.20;;;;;;4737832;55;21023;-27
2022/09/04 06:52:23;;;;;;;9.93;8.45;;;25.00;58.20;;;;;;4791734;55;20972;-30
2022/09/04 06:59:23;;;;;;;9.50;8.52;;;25.00;58.20;;;;;;4757162;55;21029;-34
2022/09/04 07:07:51;;;;;;;10.43;8.63;;;25.00;58.20;;;;;;4735435;59;21047;-25
2022/09/04 07:19:58;;;;;;;10.45;9.38;;;25.00;58.20;;;;;;4757190;55;20983;-33
2022/09/04 07:25:43;;;;;;;10.27;9.20;;;25.00;58.20;;;;;;4794754;55;20991;-32
2022/09/04 07:30:55;;;;;;;10.68;9.27;;;25.00;58.20;;;;;;4753173;55;21059;-33
2022/09/04 07:36:31;;;;;;;10.00;9.00;;;25.00;58.20;;;;;;4774715;55;20983;-27
2022/09/04 07:42:08;;;;;;;9.85;8.40;;;25.00;58.20;;;;;;4794116;55;21572;-27
2022/09/04 07:47:19;;;;;;;11.27;9.15;;;25.00;58.30;;;;;;4750015;55;20996;-30
2022/09/04 07:53:49;;;;;;;13.40;9.70;;;25.00;58.20;;;;;;4739396;55;20980;-28
2022/09/04 07:59:20;;;;;;;11.80;9.73;;;25.00;58.30;;;;;;4739442;55;21027;-34
2022/09/04 08:06:13;;;;;;;14.63;9.95;;;25.00;58.30;;;;;;4760623;55;21072;-30
2022/09/04 08:18:07;;;;;;;10.10;9.10;;;25.00;58.30;;;;;;4741358;55;20987;-25
2022/09/04 08:23:44;;;;;;;12.85;9.85;;;25.00;58.30;;;;;;4737226;55;21075;-30
2022/09/04 08:30:19;;;;;;;12.45;10.27;;;25.00;58.40;;;;;;4740442;55;20987;-29
2022/09/04 08:36:54;;;;;;;;;;;25.00;58.40;;;;;;4757013;55;21548;-31
2022/09/04 08:45:23;;;;;;;12.80;10.50;;;25.00;58.40;;;;;;4735366;59;20279;-26
2022/09/04 08:55:08;;;;;;;15.00;11.12;;;25.00;58.40;;;;;;4735666;55;21051;-33
2022/09/04 09:01:50;;;;;;;14.32;10.98;;;25.10;58.50;;;;;;4750970;55;22326;-35
2022/09/04 09:09:08;;;;;;;12.10;10.85;;;25.10;58.60;;;;;;4745466;55;21003;-36
2022/09/04 09:14:53;;;;;;;13.88;11.32;;;25.00;58.50;;;;;;4757158;55;21002;-25
2022/09/04 09:22:11;;;;;;;15.97;10.83;;;25.00;58.50;;;;;;4755614;55;21083;-25
2022/09/04 09:28:26;;;;;;;14.15;11.55;;;25.00;58.60;;;;;;4736661;59;20996;-28
2022/09/04 09:34:01;;;;;;;13.43;11.40;;;25.00;58.60;;;;;;4752602;55;21032;-28
2022/09/04 09:40:01;;;;;;;14.00;12.05;;;25.00;58.60;;;;;;4756980;55;22514;-33
2022/09/04 09:45:36;;;;;;;13.62;11.02;;;25.00;58.70;;;;;;4752722;55;21039;-28
2022/09/04 09:52:40;;;;;;;13.88;11.85;;;25.00;58.70;;;;;;4768878;55;21220;-27
2022/09/04 10:01:12;;;;;;;12.95;11.48;;;25.00;58.70;;;;;;4736276;59;21019;-26
2022/09/04 10:06:40;;;;;;;12.80;11.40;;;25.00;58.70;;;;;;4735760;59;21505;-31
2022/09/04 10:22:02;;;;;;;14.20;12.70;;;25.00;58.70;;;;;;4736721;59;21027;-24
2022/09/04 10:30:10;;;;;;;19.52;14.52;;;25.00;58.80;;;;;;4754768;55;21027;-30
2022/09/04 10:35:35;;;;;;;19.35;14.80;;;25.00;58.80;;;;;;4759202;55;21525;-26
2022/09/04 10:41:15;;;;;;;23.40;16.75;;;25.00;58.80;;;;;;4741647;55;21053;-34
2022/09/04 10:46:51;;;;;;;19.67;15.70;;;25.10;58.80;;;;;;4735839;55;21132;-31
2022/09/04 10:52:32;;;;;;;23.85;16.98;;;25.00;58.80;;;;;;4750090;55;21544;-32
2022/09/04 11:00:48;;;;;;;19.92;15.95;;;25.00;58.80;;;;;;4743391;55;21035;-35
2022/09/04 11:09:19;;;;;;;20.83;16.15;;;25.00;58.80;;;;;;4742777;55;21482;-25
2022/09/04 11:14:50;;;;;;;22.15;17.37;;;25.00;58.80;;;;;;4769858;55;21019;-26
2022/09/04 11:20:29;;;;;;;24.00;16.50;;;25.10;58.90;;;;;;4751735;55;21585;-35
2022/09/04 11:26:19;;;;;;;20.73;16.12;;;25.10;58.90;;;;;;4736497;59;20995;-28
2022/09/04 11:38:16;;;;;;;19.85;16.58;;;25.00;58.80;;;;;;4770630;55;21466;-28
2022/09/04 11:48:41;;;;;;;20.27;16.12;;;25.10;58.90;;;;;;4790550;55;21470;-33
2022/09/04 11:54:41;;;;;;;22.25;16.27;;;25.10;58.90;;;;;;4763738;55;21584;-35
2022/09/04 12:00:31;;;;;;;19.23;16.00;;;25.10;58.90;;;;;;4737327;55;20972;-28
2022/09/04 12:06:09;;;;;;;18.42;15.32;;;25.10;58.90;;;;;;4736371;59;21082;-25
2022/09/04 12:11:50;;;;;;;18.00;15.00;;;25.10;58.90;;;;;;4742496;55;20972;-33
2022/09/04 12:17:38;;;;;;;18.95;15.52;;;25.10;59.00;;;;;;4737805;55;21051;-28
2022/09/04 12:26:28;;;;;;;19.35;15.70;;;25.10;59.00;;;;;;4781838;55;21055;-25
2022/09/04 12:32:41;;;;;;;18.80;15.88;;;25.10;59.00;;;;;;4750862;55;20996;-26
2022/09/04 12:38:09;;;;;;;18.33;15.88;;;25.10;59.00;;;;;;4735862;59;21612;-25
2022/09/04 12:43:23;;;;;;;19.80;16.27;;;25.10;59.00;;;;;;4735886;55;20995;-31
2022/09/04 12:48:50;;;;;;;18.75;15.60;;;25.10;59.00;;;;;;4779700;55;20988;-28
2022/09/04 12:55:35;;;;;;;17.80;15.52;;;25.10;59.00;;;;;;4736598;59;21094;-29
2022/09/04 13:00:56;;;;;;;17.30;15.43;;;25.10;59.00;;;;;;4766982;55;21083;-35
2022/09/04 13:06:26;;;;;;;18.35;15.32;;;25.10;59.00;;;;;;4767512;55;20987;-27
2022/09/04 13:12:25;;;;;;;16.95;15.18;;;25.10;59.00;;;;;;4740232;55;21481;-28
2022/09/04 13:19:06;;;;;;;17.27;15.23;;;25.10;59.00;;;;;;4798654;55;20960;-36
2022/09/04 13:26:08;;;;;;;17.67;15.77;;;25.10;59.00;;;;;;4737337;55;21557;-29
2022/09/04 13:35:00;;;;;;;18.27;15.70;;;25.10;59.00;;;;;;4743868;55;21581;-29
2022/09/04 13:41:53;;;;;;;17.50;15.45;;;25.10;59.10;;;;;;4759364;55;21553;-30
2022/09/04 13:47:21;;;;;;;17.40;15.52;;;25.10;59.10;;;;;;4754581;55;21843;-25
2022/09/04 13:52:40;;;;;;;17.52;15.63;;;25.10;59.20;;;;;;4785353;55;21067;-25
2022/09/04 13:58:18;;;;;;;18.17;16.27;;;25.10;59.20;;;;;;4748148;55;21047;-27
2022/09/04 14:06:58;;;;;;;17.85;15.30;;;25.10;59.20;;;;;;4735681;59;22199;-27
2022/09/04 14:13:40;;;;;;;16.77;15.02;;;25.10;59.20;;;;;;4744407;55;21645;-31
2022/09/04 14:19:48;;;;;;;17.65;15.32;;;25.10;59.30;;;;;;4736206;59;21019;-36
2022/09/04 14:30:45;;;;;;;17.60;15.80;;;25.10;59.30;;;;;;4740197;55;21076;-29
2022/09/04 14:43:24;;;;;;;18.67;16.67;;;25.10;59.30;;;;;;4758301;55;21525;-26
2022/09/04 14:48:26;;;;;;;18.90;16.27;;;25.10;59.40;;;;;;4741498;55;21004;-25
2022/09/04 14:53:33;;;;;;;17.48;15.73;;;25.10;59.40;;;;;;4736533;59;21517;-25
2022/09/04 14:58:41;;;;;;;17.30;15.50;;;25.10;59.50;;;;;;4736220;55;20975;-30
2022/09/04 15:04:00;;;;;;;17.77;15.98;;;25.10;59.50;;;;;;4736037;59;21071;-34
2022/09/04 15:09:23;;;;;;;20.50;16.98;;;25.10;60.10;;;;;;4736414;59;21035;-27
2022/09/04 15:14:38;;;;;;;17.87;16.02;;;25.10;60.30;;;;;;4738691;55;21110;-28
2022/09/04 15:19:50;;;;;;;18.75;16.77;;;25.10;59.60;;;;;;4767361;55;21051;-30
2022/09/04 15:28:02;;;;;;;17.83;15.93;;;25.10;59.60;;;;;;4756579;55;21091;-29
2022/09/04 15:33:10;;;;;;;17.70;15.90;;;25.10;59.70;;;;;;4763518;55;21023;-29
2022/09/04 15:38:24;;;;;;;18.55;16.55;;;25.10;59.70;;;;;;4743546;55;21003;-26
2022/09/04 15:43:41;;;;;;;20.67;16.98;;;25.10;59.70;;;;;;4735368;59;21494;-27
2022/09/04 15:49:33;;;;;;;17.67;15.93;;;25.10;59.80;;;;;;4795346;55;21047;-27
2022/09/04 15:57:47;;;;;;;18.37;16.58;;;25.10;59.80;;;;;;4736627;55;21454;-25
2022/09/04 16:03:10;;;;;;;18.97;16.87;;;25.10;60.50;;;;;;4774353;55;21544;-30
2022/09/04 16:08:45;;;;;;;17.95;16.15;;;25.10;59.90;;;;;;4736461;55;21000;-29
2022/09/04 16:13:58;;;;;;;17.75;15.95;;;25.10;59.90;;;;;;4736306;59;21027;-31
2022/09/04 16:20:35;;;;;;;17.35;15.55;;;25.10;59.90;;;;;;4740421;55;20967;-25
2022/09/04 16:25:48;;;;;;;18.45;16.55;;;25.10;60.00;;;;;;4736093;55;21000;-36
2022/09/04 16:31:22;;;;;;;18.15;16.27;;;25.10;60.00;;;;;;4771306;55;21483;-30
2022/09/04 16:36:44;;;;;;;17.62;15.82;;;25.10;60.00;;;;;;4745292;55;21090;-27
2022/09/04 16:43:35;;;;;;;19.00;17.00;;;25.10;60.00;;;;;;4760779;55;21675;-26
2022/09/04 16:48:53;;;;;;;19.20;17.15;;;25.10;60.10;;;;;;4735837;59;21149;-30
2022/09/04 16:54:16;;;;;;;18.17;16.35;;;25.10;60.10;;;;;;4736223;59;20952;-27
2022/09/04 16:59:38;;;;;;;18.60;16.60;;;25.10;60.20;;;;;;4761096;55;22211;-31
2022/09/04 17:04:48;;;;;;;18.52;16.62;;;25.10;60.20;;;;;;4780702;55;21597;-26
2022/09/04 17:10:32;;;;;;;17.65;15.95;;;25.10;60.20;;;;;;4746778;55;21014;-27
2022/09/04 17:16:16;;;;;;;18.90;17.00;;;25.10;60.20;;;;;;4740504;55;21037;-25
2022/09/04 17:26:54;;;;;;;18.65;16.77;;;25.10;60.30;;;;;;4735499;55;21086;-27
2022/09/04 17:32:04;;;;;;;19.45;17.52;;;25.10;60.30;;;;;;4736063;59;22080;-24
2022/09/04 17:37:31;;;;;;;18.90;17.00;;;25.10;60.40;;;;;;4737742;55;21035;-32
2022/09/04 17:42:59;;;;;;;19.80;17.05;;;25.10;60.50;;;;;;4735853;59;21087;-30
2022/09/04 17:48:22;;;;;;;19.45;17.45;;;25.10;60.50;;;;;;4765440;55;20976;-26
2022/09/04 17:53:29;;;;;;;19.42;17.52;;;25.10;60.50;;;;;;4780723;55;21542;-28
2022/09/04 17:59:28;;;;;;;19.35;17.42;;;25.10;60.50;;;;;;4745479;55;21051;-33
2022/09/04 18:05:56;;;;;;;19.75;17.70;;;25.10;60.60;;;;;;4736477;55;21099;-33
2022/09/04 18:11:19;;;;;;;20.27;18.17;;;25.10;60.60;;;;;;4781512;55;20984;-32
2022/09/04 18:17:54;;;;;;;19.67;17.58;;;25.10;60.70;;;;;;4736580;59;21465;-25
2022/09/04 18:24:32;;;;;;;19.70;17.75;;;25.10;60.70;;;;;;4759295;55;20987;-25
2022/09/04 18:30:01;;;;;;;19.83;17.73;;;25.10;60.80;;;;;;4741169;55;20984;-33
2022/09/04 18:36:39;;;;;;;20.52;18.17;;;25.10;60.80;;;;;;4764244;55;21026;-34
2022/09/04 18:42:15;;;;;;;19.75;17.75;;;25.10;60.90;;;;;;4735919;59;21617;-33
2022/09/04 18:47:55;;;;;;;19.40;17.43;;;25.10;60.90;;;;;;4755095;55;21015;-33
2022/09/04 18:53:16;;;;;;;20.08;18.08;;;25.10;61.00;;;;;;4736790;55;21056;-30
2022/09/04 18:59:20;;;;;;;20.42;18.33;;;25.10;60.90;;;;;;4744978;55;20996;-25
2022/09/04 19:05:10;;;;;;;19.27;17.25;;;25.10;61.00;;;;;;4737518;55;21075;-31
2022/09/04 19:12:07;;;;;;;20.15;18.05;;;25.10;61.00;;;;;;4768705;55;20975;-27
2022/09/04 19:17:41;;;;;;;20.23;18.27;;;25.10;61.00;;;;;;4802491;55;20952;-29
2022/09/04 19:22:52;;;;;;;20.12;18.10;;;25.10;61.10;;;;;;4821081;55;21027;-27
2022/09/04 19:28:11;;;;;;;21.20;19.00;;;25.10;61.00;;;;;;4744580;55;20992;-29
2022/09/04 19:33:23;;;;;;;19.85;17.83;;;25.10;61.10;;;;;;4760860;55;21625;-26
2022/09/04 19:40:05;;;;;;;19.30;17.40;;;25.10;61.20;;;;;;4759519;55;21015;-27
2022/09/04 19:45:09;;;;;;;19.27;17.40;;;25.10;61.20;;;;;;4758932;55;21514;-26
2022/09/04 19:50:16;;;;;;;19.80;17.83;;;25.10;61.10;;;;;;4778584;55;21019;-27
2022/09/04 19:55:43;;;;;;;19.85;17.83;;;25.10;61.20;;;;;;4745842;55;20975;-24
2022/09/04 20:00:56;;;;;;;20.35;18.25;;;25.10;61.30;;;;;;4742664;55;21593;-28
2022/09/04 20:06:20;;;;;;;20.98;18.77;;;25.10;61.10;;;;;;4736410;59;21028;-30
2022/09/04 20:11:49;;;;;;;20.58;18.52;;;25.10;61.20;;;;;;4735880;59;21015;-34
2022/09/04 20:17:08;;;;;;;20.67;18.62;;;25.10;61.20;;;;;;4757145;55;22364;-30
2022/09/04 20:22:44;;;;;;;20.60;18.60;;;25.10;61.20;;;;;;4735794;55;21470;-29
2022/09/04 20:27:59;;;;;;;21.58;19.45;;;25.10;61.40;;;;;;4747210;55;21568;-27
2022/09/04 20:33:25;;;;;;;21.52;19.42;;;25.10;61.20;;;;;;4774000;55;21039;-26
2022/09/04 20:39:25;;;;;;;21.12;19.12;;;25.10;61.30;;;;;;4736650;59;20987;-27
2022/09/04 20:44:50;;;;;;;21.92;19.65;;;25.10;61.40;;;;;;4748974;55;21465;-34
2022/09/04 20:51:16;;;;;;;20.98;18.87;;;25.10;61.20;;;;;;4775388;55;21019;-25
2022/09/04 20:56:54;;;;;;;20.70;18.70;;;25.10;61.20;;;;;;4756749;55;21086;-35
2022/09/04 21:04:51;;;;;;;20.83;18.83;;;25.10;61.30;;;;;;4742605;55;21127;-28
2022/09/04 21:13:13;;;;;;;21.55;19.35;;;25.00;61.20;;;;;;4772890;55;21139;-26
2022/09/04 21:19:14;;;;;;;21.37;19.00;;;25.00;61.20;;;;;;4822839;55;21553;-28
2022/09/04 21:26:20;;;;;;;20.52;18.62;;;25.00;61.20;;;;;;4762663;55;21628;-30
2022/09/04 21:31:50;;;;;;;22.02;19.77;;;25.00;61.20;;;;;;4754982;55;21079;-31
2022/09/04 21:37:09;;;;;;;20.77;18.77;;;25.00;61.30;;;;;;4757539;55;21016;-35
2022/09/04 21:43:49;;;;;;;21.08;19.00;;;25.00;61.40;;;;;;4749067;55;21601;-27
2022/09/04 21:58:45;;;;;;;21.37;19.15;;;25.00;61.30;;;;;;4775573;55;21075;-25
2022/09/04 22:06:35;;;;;;;21.05;18.98;;;25.00;61.20;;;;;;4755883;55;21513;-24
2022/09/04 22:11:56;;;;;;;21.67;19.58;;;25.00;61.20;;;;;;4741021;55;21513;-33
2022/09/04 22:20:12;;;;;;;20.75;18.62;;;25.00;61.10;;;;;;4883470;55;21034;-25
2022/09/04 22:30:38;;;;;;;20.55;18.55;;;25.00;61.20;;;;;;4752602;55;20999;-27
2022/09/04 22:39:46;;;;;;;21.23;19.17;;;25.00;61.30;;;;;;4755968;55;21536;-28
2022/09/04 22:45:21;;;;;;;21.20;19.23;;;25.00;61.20;;;;;;4735531;59;21020;-27
2022/09/04 22:52:07;;;;;;;21.83;19.73;;;25.00;61.20;;;;;;4758842;55;21013;-26
2022/09/04 22:57:20;;;;;;;20.17;18.27;;;25.00;61.20;;;;;;4740771;55;20991;-29
2022/09/04 23:06:50;;;;;;;21.17;19.02;;;25.00;61.20;;;;;;4737254;55;21051;-26
2022/09/04 23:18:47;;;;;;;20.42;18.58;;;25.00;61.20;;;;;;4740305;55;21139;-32
2022/09/04 23:24:14;;;;;;;19.83;18.00;;;25.00;61.10;;;;;;4739914;55;20983;-32
2022/09/04 23:30:58;;;;;;;20.67;18.77;;;25.00;61.10;;;;;;4768808;55;21071;-35
2022/09/04 23:37:40;;;;;;;19.40;17.65;;;24.90;61.10;;;;;;4749187;55;22414;-36
2022/09/04 23:45:58;;;;;;;19.95;18.12;;;25.00;61.10;;;;;;4764235;55;20991;-30
2022/09/04 23:51:30;;;;;;;21.00;18.98;;;25.00;61.00;;;;;;4752588;55;21007;-34
2022/09/04 23:57:00;;;;;;;20.67;18.75;;;25.00;61.10;;;;;;4748975;55;21541;-33
